createdAt,value
2023-03-21T00:00:21.735Z,86.51
2023-03-21T00:02:48.296Z,86.05
2023-03-21T00:05:16.448Z,85.97
2023-03-21T00:07:43.081Z,85.88
2023-03-21T00:10:16.553Z,85.89
2023-03-21T00:12:44.941Z,86.19
2023-03-21T00:15:12.766Z,86.46
2023-03-21T00:17:39.426Z,86.60
2023-03-21T00:20:07.526Z,86.12
2023-03-21T00:22:36.657Z,86.11
2023-03-21T00:25:03.506Z,86.24
2023-03-21T00:27:49.974Z,85.76
2023-03-21T00:30:17.182Z,86.00
2023-03-21T00:32:54.911Z,86.22
2023-03-21T00:36:06.678Z,86.55
2023-03-21T00:38:10.840Z,87.06
2023-03-21T00:40:43.709Z,86.78
2023-03-21T00:43:15.986Z,86.09
2023-03-21T00:45:42.684Z,86.53
2023-03-21T00:48:09.632Z,86.19
2023-03-21T00:50:36.450Z,85.89
2023-03-21T00:53:03.032Z,86.10
2023-03-21T00:55:31.145Z,86.15
2023-03-21T00:58:02.092Z,86.60
2023-03-21T01:00:29.589Z,85.90
2023-03-21T01:03:02.648Z,86.23
2023-03-21T01:05:32.904Z,86.77
2023-03-21T01:07:59.462Z,86.58
2023-03-21T01:10:26.173Z,86.37
2023-03-21T01:12:54.020Z,86.39
2023-03-21T01:15:20.909Z,86.92
2023-03-21T01:17:47.442Z,86.81
2023-03-21T01:20:14.017Z,87.14
2023-03-21T01:22:40.525Z,87.08
2023-03-21T01:25:21.486Z,87.11
2023-03-21T01:27:48.288Z,86.70
2023-03-21T01:30:21.503Z,86.42
2023-03-21T01:32:49.541Z,87.00
2023-03-21T01:35:16.190Z,87.70
2023-03-21T01:37:42.684Z,86.60
2023-03-21T01:40:15.340Z,87.30
2023-03-21T01:42:41.963Z,87.22
2023-03-21T01:45:41.852Z,87.41
2023-03-21T01:48:09.984Z,87.58
2023-03-21T01:50:36.929Z,87.90
2023-03-21T01:53:03.537Z,87.70
2023-03-21T01:55:31.088Z,86.54
2023-03-21T01:58:05.947Z,86.80
2023-03-21T02:00:34.128Z,87.16
2023-03-21T02:03:21.032Z,86.77
2023-03-21T02:05:56.574Z,86.99
2023-03-21T02:08:30.572Z,86.65
2023-03-21T02:11:05.691Z,86.89
2023-03-21T02:13:32.205Z,85.69
2023-03-21T02:16:02.699Z,86.04
2023-03-21T02:18:38.079Z,85.55
2023-03-21T02:21:36.240Z,85.02
2023-03-21T02:25:01.380Z,85.34
2023-03-21T02:27:34.417Z,85.48
2023-03-21T02:30:52.044Z,85.86
2023-03-21T02:34:02.728Z,84.54
2023-03-21T02:36:55.606Z,84.37
2023-03-21T02:39:27.614Z,84.76
2023-03-21T02:42:02.693Z,84.49
2023-03-21T02:44:35.454Z,84.25
2023-03-21T02:47:06.872Z,84.47
2023-03-21T02:49:39.953Z,84.84
2023-03-21T02:52:17.073Z,84.80
2023-03-21T02:54:50.611Z,84.12
2023-03-21T02:57:19.148Z,84.88
2023-03-21T02:59:54.608Z,84.63
2023-03-21T03:02:27.758Z,85.13
2023-03-21T03:04:54.432Z,85.31
2023-03-21T03:07:40.911Z,85.94
2023-03-21T03:10:29.620Z,85.88
2023-03-21T03:13:06.991Z,85.55
2023-03-21T03:15:41.155Z,85.63
2023-03-21T03:18:19.533Z,85.38
2023-03-21T03:20:55.800Z,86.14
2023-03-21T03:23:29.967Z,86.14
2023-03-21T03:26:02.717Z,85.81
2023-03-21T03:28:36.910Z,85.75
2023-03-21T03:31:09.693Z,85.67
2023-03-21T03:33:40.626Z,85.57
2023-03-21T03:36:21.594Z,85.54
2023-03-21T03:38:57.837Z,85.58
2023-03-21T03:41:26.974Z,85.51
2023-03-21T03:43:56.455Z,85.23
2023-03-21T03:46:30.438Z,85.73
2023-03-21T03:49:00.493Z,85.28
2023-03-21T03:51:32.333Z,85.63
2023-03-21T03:54:04.565Z,85.58
2023-03-21T03:56:31.404Z,85.25
2023-03-21T03:58:58.232Z,85.67
2023-03-21T04:01:24.984Z,86.58
2023-03-21T04:03:58.543Z,84.85
2023-03-21T04:06:33.425Z,86.34
2023-03-21T04:09:03.438Z,85.50
2023-03-21T04:11:32.061Z,85.77
2023-03-21T04:13:58.648Z,86.22
2023-03-21T04:16:25.398Z,86.11
2023-03-21T04:18:52.012Z,86.20
2023-03-21T04:21:18.695Z,86.35
2023-03-21T04:23:45.369Z,85.93
2023-03-21T04:26:13.417Z,85.99
2023-03-21T04:28:40.043Z,85.88
2023-03-21T04:31:16.149Z,86.65
2023-03-21T04:33:50.897Z,86.86
2023-03-21T04:36:17.458Z,85.61
2023-03-21T04:38:44.161Z,86.62
2023-03-21T04:41:10.880Z,86.01
2023-03-21T04:43:38.739Z,86.00
2023-03-21T04:46:06.048Z,86.08
2023-03-21T04:48:32.777Z,86.01
2023-03-21T04:50:59.367Z,86.82
2023-03-21T04:53:25.960Z,86.64
2023-03-21T04:55:55.337Z,86.85
2023-03-21T04:58:22.122Z,86.78
2023-03-21T05:00:50.282Z,86.30
2023-03-21T05:03:16.786Z,86.17
2023-03-21T05:05:43.496Z,86.30
2023-03-21T05:08:10.066Z,86.15
2023-03-21T05:10:36.714Z,86.97
2023-03-21T05:13:03.595Z,87.11
2023-03-21T05:15:30.327Z,87.28
2023-03-21T05:17:58.399Z,88.10
2023-03-21T05:20:25.157Z,88.10
2023-03-21T05:22:51.758Z,88.18
2023-03-21T05:25:18.813Z,87.71
2023-03-21T05:27:45.524Z,88.10
2023-03-21T05:30:14.517Z,87.72
2023-03-21T05:32:41.405Z,87.74
2023-03-21T05:35:10.179Z,88.17
2023-03-21T05:37:36.758Z,87.87
2023-03-21T05:40:03.805Z,88.12
2023-03-21T05:42:30.360Z,89.16
2023-03-21T05:44:56.915Z,89.33
2023-03-21T05:47:23.716Z,88.98
2023-03-21T05:49:50.287Z,89.21
2023-03-21T05:52:18.286Z,88.88
2023-03-21T05:54:45.125Z,88.97
2023-03-21T05:57:11.692Z,89.57
2023-03-21T05:59:38.258Z,89.58
2023-03-21T06:02:05.034Z,90.10
2023-03-21T06:04:31.605Z,89.14
2023-03-21T06:06:58.176Z,89.29
2023-03-21T06:09:26.274Z,89.18
2023-03-21T06:11:55.021Z,89.33
2023-03-21T06:14:22.471Z,88.66
2023-03-21T06:16:49.035Z,88.84
2023-03-21T06:19:15.578Z,90.22
2023-03-21T06:21:42.551Z,88.88
2023-03-21T06:24:09.987Z,89.30
2023-03-21T06:26:37.967Z,87.54
2023-03-21T06:29:04.767Z,88.18
2023-03-21T06:31:31.703Z,88.00
2023-03-21T06:33:58.272Z,86.43
2023-03-21T06:36:24.937Z,86.61
2023-03-21T06:38:51.490Z,87.04
2023-03-21T06:41:18.503Z,86.94
2023-03-21T06:43:46.443Z,87.17
2023-03-21T06:46:13.003Z,86.64
2023-03-21T06:48:39.645Z,86.22
2023-03-21T06:51:07.017Z,86.89
2023-03-21T06:53:36.043Z,86.31
2023-03-21T06:56:02.692Z,85.91
2023-03-21T06:58:29.407Z,85.86
2023-03-21T07:01:00.120Z,85.03
2023-03-21T07:03:27.078Z,85.04
2023-03-21T07:05:53.791Z,85.15
2023-03-21T07:08:20.367Z,84.88
2023-03-21T07:10:47.037Z,84.55
2023-03-21T07:13:14.054Z,85.12
2023-03-21T07:15:40.659Z,84.04
2023-03-21T07:18:09.637Z,83.81
2023-03-21T07:20:36.648Z,83.96
2023-03-21T07:23:03.367Z,83.65
2023-03-21T07:25:29.983Z,84.63
2023-03-21T07:27:56.788Z,83.50
2023-03-21T07:30:23.423Z,84.08
2023-03-21T07:32:49.970Z,83.73
2023-03-21T07:35:18.251Z,83.20
2023-03-21T07:37:44.964Z,81.63
2023-03-21T07:40:12.019Z,81.88
2023-03-21T07:42:38.926Z,81.38
2023-03-21T07:45:06.897Z,80.92
2023-03-21T07:47:33.931Z,80.92
2023-03-21T07:50:00.648Z,80.57
2023-03-21T07:52:28.652Z,79.71
2023-03-21T07:54:55.229Z,79.70
2023-03-21T07:57:21.773Z,78.70
2023-03-21T07:59:48.344Z,77.78
2023-03-21T08:02:16.165Z,77.67
2023-03-21T08:04:42.982Z,77.42
2023-03-21T08:07:09.563Z,77.49
2023-03-21T08:09:37.625Z,77.66
2023-03-21T08:12:05.317Z,77.40
2023-03-21T08:14:31.844Z,77.69
2023-03-21T08:16:58.433Z,76.32
2023-03-21T08:19:25.102Z,76.86
2023-03-21T08:21:51.696Z,76.89
2023-03-21T08:24:18.363Z,76.21
2023-03-21T08:26:46.375Z,77.05
2023-03-21T08:29:12.955Z,77.19
2023-03-21T08:31:40.177Z,76.72
2023-03-21T08:34:06.762Z,76.37
2023-03-21T08:36:35.249Z,76.93
2023-03-21T08:39:01.787Z,76.15
2023-03-21T08:41:28.474Z,75.45
2023-03-21T08:43:56.329Z,76.24
2023-03-21T08:46:22.922Z,76.51
2023-03-21T08:48:49.539Z,76.18
2023-03-21T08:51:16.097Z,76.78
2023-03-21T08:53:42.900Z,77.26
2023-03-21T08:56:10.052Z,76.25
2023-03-21T08:58:36.877Z,76.55
2023-03-21T09:01:05.847Z,76.43
2023-03-21T09:03:32.576Z,76.42
2023-03-21T09:05:59.246Z,74.93
2023-03-21T09:08:25.886Z,74.91
2023-03-21T09:10:53.745Z,75.06
2023-03-21T09:13:20.510Z,74.34
2023-03-21T09:15:47.100Z,74.60
2023-03-21T09:18:15.252Z,74.99
2023-03-21T09:20:42.622Z,74.07
2023-03-21T09:23:09.672Z,73.17
2023-03-21T09:25:36.666Z,73.18
2023-03-21T09:28:04.175Z,72.82
2023-03-21T09:30:31.982Z,73.50
2023-03-21T09:32:59.362Z,72.65
2023-03-21T09:35:27.747Z,72.53
2023-03-21T09:37:54.966Z,72.96
2023-03-21T09:40:35.810Z,72.70
2023-03-21T09:43:10.774Z,72.95
2023-03-21T09:45:44.329Z,73.39
2023-03-21T09:48:19.182Z,72.90
2023-03-21T09:50:47.137Z,73.03
2023-03-21T09:53:26.395Z,73.20
2023-03-21T09:55:53.246Z,72.87
2023-03-21T09:58:25.754Z,72.65
2023-03-21T10:00:59.800Z,73.02
2023-03-21T10:03:31.438Z,72.89
2023-03-21T10:06:00.020Z,73.61
2023-03-21T10:08:29.825Z,72.79
2023-03-21T10:11:00.956Z,73.45
2023-03-21T10:13:30.224Z,74.07
2023-03-21T10:15:57.590Z,74.04
2023-03-21T10:18:27.598Z,74.08
2023-03-21T10:20:54.337Z,74.07
2023-03-21T10:23:27.472Z,73.37
2023-03-21T10:25:57.200Z,73.22
2023-03-21T10:28:28.213Z,72.99
2023-03-21T10:30:58.208Z,73.36
2023-03-21T10:33:27.298Z,73.93
2023-03-21T10:35:58.928Z,74.17
2023-03-21T10:38:27.100Z,74.73
2023-03-21T10:40:54.766Z,74.72
2023-03-21T10:43:33.347Z,75.33
2023-03-21T10:46:07.663Z,75.16
2023-03-21T10:48:36.760Z,75.85
2023-03-21T10:51:06.703Z,76.11
2023-03-21T10:53:38.914Z,76.39
2023-03-21T10:56:08.798Z,77.08
2023-03-21T10:58:38.316Z,77.40
2023-03-21T11:01:09.451Z,77.56
2023-03-21T11:03:38.042Z,77.41
2023-03-21T11:06:08.083Z,77.77
2023-03-21T11:08:41.511Z,78.78
2023-03-21T11:11:09.789Z,78.34
2023-03-21T11:13:39.099Z,78.64
2023-03-21T11:16:08.975Z,78.45
2023-03-21T11:18:41.283Z,78.90
2023-03-21T11:21:10.644Z,78.33
2023-03-21T11:23:42.238Z,79.24
2023-03-21T11:26:11.113Z,79.02
2023-03-21T11:28:40.574Z,79.26
2023-03-21T11:31:08.872Z,79.43
2023-03-21T11:33:38.451Z,79.21
2023-03-21T11:36:08.013Z,79.03
2023-03-21T11:38:38.550Z,79.74
2023-03-21T11:41:07.520Z,79.58
2023-03-21T11:43:36.600Z,80.37
2023-03-21T11:46:07.229Z,79.88
2023-03-21T11:48:37.993Z,80.41
2023-03-21T11:51:12.564Z,80.71
2023-03-21T11:53:45.590Z,81.27
2023-03-21T11:56:24.071Z,81.33
2023-03-21T11:59:07.527Z,81.59
2023-03-21T12:01:45.155Z,81.83
2023-03-21T12:04:21.333Z,81.64
2023-03-21T12:06:51.681Z,82.83
2023-03-21T12:09:33.503Z,83.19
2023-03-21T12:12:13.382Z,84.73
2023-03-21T12:14:51.868Z,86.37
2023-03-21T12:17:32.532Z,88.25
2023-03-21T12:20:12.572Z,89.76
2023-03-21T12:22:48.528Z,90.21
2023-03-21T12:25:19.399Z,89.85
2023-03-21T12:27:56.122Z,90.41
2023-03-21T12:30:32.903Z,91.37
2023-03-21T12:33:14.300Z,92.28
2023-03-21T12:35:53.752Z,93.79
2023-03-21T12:38:24.026Z,93.00
2023-03-21T12:41:04.753Z,93.59
2023-03-21T12:43:40.987Z,93.37
2023-03-21T12:46:13.710Z,95.00
2023-03-21T12:48:44.878Z,96.21
2023-03-21T12:51:14.396Z,95.54
2023-03-21T12:53:51.738Z,96.17
2023-03-21T12:56:21.015Z,98.28
2023-03-21T12:58:55.961Z,97.59
2023-03-21T13:01:24.383Z,98.82
2023-03-21T13:04:04.417Z,99.04
2023-03-21T13:06:31.422Z,99.18
2023-03-21T13:09:02.626Z,99.82
2023-03-21T13:11:31.272Z,99.68
2023-03-21T13:14:04.562Z,100.00
2023-03-21T13:16:35.047Z,99.67
2023-03-21T13:19:11.562Z,99.91
2023-03-21T13:21:44.378Z,100.00
2023-03-21T13:24:24.356Z,100.00
2023-03-21T13:27:01.545Z,99.26
2023-03-21T13:29:32.955Z,99.86
2023-03-21T13:32:09.285Z,100.00
2023-03-21T13:34:39.682Z,100.00
2023-03-21T13:37:12.670Z,100.00
2023-03-21T13:39:44.280Z,100.00
2023-03-21T13:42:18.366Z,100.00
2023-03-21T13:44:50.471Z,100.00
2023-03-21T13:47:31.488Z,99.67
2023-03-21T13:50:24.830Z,100.00
2023-03-21T13:53:24.900Z,98.71
2023-03-21T13:56:08.188Z,99.82
2023-03-21T13:58:38.219Z,100.00
2023-03-21T14:01:16.239Z,100.00
2023-03-21T14:03:45.073Z,100.00
2023-03-21T14:06:11.966Z,100.00
2023-03-21T14:08:40.788Z,100.00
2023-03-21T14:11:11.906Z,100.00
2023-03-21T14:13:50.355Z,100.00
2023-03-21T14:16:21.708Z,100.00
2023-03-21T14:18:54.399Z,100.00
2023-03-21T14:21:24.517Z,100.00
2023-03-21T14:23:59.941Z,100.00
2023-03-21T14:26:29.063Z,100.00
2023-03-21T14:28:56.002Z,100.00
2023-03-21T14:31:24.109Z,100.00
2023-03-21T14:33:52.601Z,100.00
2023-03-21T14:36:23.168Z,100.00
2023-03-21T14:39:02.406Z,100.00
2023-03-21T14:41:30.775Z,100.00
2023-03-21T14:44:17.369Z,100.00
2023-03-21T14:46:45.455Z,100.00
2023-03-21T14:49:14.369Z,100.00
2023-03-21T14:51:41.246Z,100.00
2023-03-21T14:54:12.424Z,100.00
2023-03-21T14:56:39.411Z,100.00
2023-03-21T14:59:06.343Z,100.00
2023-03-21T15:01:33.772Z,100.00
2023-03-21T15:04:06.045Z,100.00
2023-03-21T15:06:33.196Z,100.00
2023-03-21T15:09:01.847Z,100.00
2023-03-21T15:11:32.681Z,100.00
2023-03-21T15:14:01.550Z,100.00
2023-03-21T15:16:29.227Z,100.00
2023-03-21T15:18:57.218Z,100.00
2023-03-21T15:21:28.720Z,100.00
2023-03-21T15:23:58.843Z,100.00
2023-03-21T15:26:26.316Z,100.00
2023-03-21T15:28:57.166Z,100.00
2023-03-21T15:31:28.471Z,100.00
2023-03-21T15:33:55.390Z,100.00
2023-03-21T15:36:25.466Z,100.00
2023-03-21T15:38:54.409Z,100.00
2023-03-21T15:41:28.534Z,100.00
2023-03-21T15:44:02.643Z,100.00
2023-03-21T15:46:39.405Z,100.00
2023-03-21T15:49:20.399Z,100.00
2023-03-21T15:51:51.812Z,100.00
2023-03-21T15:54:23.344Z,100.00
2023-03-21T15:56:53.905Z,100.00
2023-03-21T15:59:23.490Z,100.00
2023-03-21T16:01:50.683Z,100.00
2023-03-21T16:04:17.787Z,100.00
2023-03-21T16:06:52.482Z,100.00
2023-03-21T16:09:20.590Z,100.00
2023-03-21T16:11:49.904Z,100.00
2023-03-21T16:14:17.194Z,100.00
2023-03-21T16:16:44.404Z,100.00
2023-03-21T16:19:11.550Z,100.00
2023-03-21T16:21:38.306Z,100.00
2023-03-21T16:24:05.899Z,100.00
2023-03-21T16:26:36.640Z,100.00
2023-03-21T16:29:04.375Z,100.00
2023-03-21T16:31:34.101Z,100.00
2023-03-21T16:34:00.657Z,100.00
2023-03-21T16:36:29.666Z,100.00
2023-03-21T16:38:56.860Z,100.00
2023-03-21T16:41:25.390Z,100.00
2023-03-21T16:43:53.929Z,100.00
2023-03-21T16:46:22.436Z,100.00
2023-03-21T16:48:52.631Z,100.00
2023-03-21T16:51:20.939Z,100.00
2023-03-21T16:53:48.287Z,100.00
2023-03-21T16:56:18.843Z,100.00
2023-03-21T16:58:45.419Z,100.00
2023-03-21T17:01:14.531Z,100.00
2023-03-21T17:03:41.476Z,100.00
2023-03-21T17:06:13.291Z,100.00
2023-03-21T17:08:39.868Z,100.00
2023-03-21T17:11:09.183Z,100.00
2023-03-21T17:13:35.777Z,100.00
2023-03-21T17:16:02.544Z,100.00
2023-03-21T17:18:30.432Z,100.00
2023-03-21T17:20:57.015Z,100.00
2023-03-21T17:23:23.602Z,100.00
2023-03-21T17:25:50.154Z,100.00
2023-03-21T17:28:16.743Z,100.00
2023-03-21T17:30:43.801Z,100.00
2023-03-21T17:33:10.852Z,100.00
2023-03-21T17:35:38.763Z,100.00
2023-03-21T17:38:11.932Z,100.00
2023-03-21T17:40:38.960Z,100.00
2023-03-21T17:43:05.994Z,100.00
2023-03-21T17:45:32.743Z,100.00
2023-03-21T17:47:59.370Z,100.00
2023-03-21T17:50:27.774Z,100.00
2023-03-21T17:52:55.673Z,100.00
2023-03-21T17:55:22.402Z,100.00
2023-03-21T17:57:49.329Z,100.00
2023-03-21T18:00:17.999Z,100.00
2023-03-21T18:02:44.537Z,100.00
2023-03-21T18:05:11.291Z,100.00
2023-03-21T18:08:07.965Z,100.00
2023-03-21T18:10:27.528Z,100.00
2023-03-21T18:12:54.298Z,100.00
2023-03-21T18:15:23.619Z,100.00
2023-03-21T18:17:50.476Z,100.00
2023-03-21T18:20:21.341Z,100.00
2023-03-21T18:22:47.989Z,100.00
2023-03-21T18:25:15.714Z,100.00
2023-03-21T18:28:06.791Z,100.00
2023-03-21T18:30:53.113Z,100.00
2023-03-21T18:33:16.616Z,100.00
2023-03-21T18:35:43.626Z,100.00
2023-03-21T18:38:10.275Z,100.00
2023-03-21T18:40:37.280Z,100.00
2023-03-21T18:45:52.472Z,100.00
2023-03-21T18:48:19.425Z,100.00
2023-03-21T18:50:46.198Z,100.00
2023-03-21T18:53:12.885Z,100.00
2023-03-21T18:55:46.038Z,100.00
2023-03-21T18:58:14.766Z,100.00
2023-03-21T19:00:42.035Z,100.00
2023-03-21T19:03:21.627Z,100.00
2023-03-21T19:05:58.376Z,100.00
2023-03-21T19:08:25.241Z,100.00
2023-03-21T19:10:51.828Z,100.00
2023-03-21T19:13:19.840Z,100.00
2023-03-21T19:15:49.328Z,100.00
2023-03-21T19:21:03.483Z,100.00
2023-03-21T19:23:40.886Z,100.00
2023-03-21T19:26:16.627Z,100.00
2023-03-21T19:28:44.510Z,100.00
2023-03-21T19:31:11.020Z,100.00
2023-03-21T19:33:37.582Z,100.00
2023-03-21T19:36:17.713Z,100.00
2023-03-21T19:38:47.866Z,100.00
2023-03-21T19:41:14.635Z,100.00
2023-03-21T19:43:52.744Z,100.00
2023-03-21T19:46:21.631Z,100.00
2023-03-21T19:48:48.958Z,100.00
2023-03-21T19:51:31.154Z,100.00
2023-03-21T19:53:58.341Z,100.00
2023-03-21T19:56:27.411Z,100.00
2023-03-21T19:58:54.707Z,100.00
2023-03-21T20:01:23.364Z,100.00
2023-03-21T20:03:50.051Z,100.00
2023-03-21T20:06:16.917Z,100.00
2023-03-21T20:09:17.197Z,100.00
2023-03-21T20:11:30.041Z,100.00
2023-03-21T20:13:57.018Z,100.00
2023-03-21T20:16:24.967Z,100.00
2023-03-21T20:18:51.538Z,100.00
2023-03-21T20:21:25.370Z,100.00
2023-03-21T20:23:52.380Z,100.00
2023-03-21T20:26:19.574Z,100.00
2023-03-21T20:28:56.569Z,100.00
2023-03-21T20:31:32.714Z,100.00
2023-03-21T20:33:59.710Z,100.00
2023-03-21T20:36:39.293Z,100.00
2023-03-21T20:39:06.906Z,100.00
2023-03-21T20:41:33.483Z,100.00
2023-03-21T20:46:48.066Z,100.00
2023-03-21T20:49:14.649Z,100.00
2023-03-21T20:54:28.403Z,100.00
2023-03-21T20:56:54.964Z,100.00
2023-03-21T20:59:27.382Z,100.00
2023-03-21T21:01:56.748Z,100.00
2023-03-21T21:04:42.734Z,100.00
2023-03-21T21:07:11.801Z,100.00
2023-03-21T21:09:38.397Z,100.00
2023-03-21T21:12:07.634Z,100.00
2023-03-21T21:14:35.013Z,100.00
2023-03-21T21:17:20.938Z,100.00
2023-03-21T21:19:50.051Z,100.00
2023-03-21T21:22:16.783Z,100.00
2023-03-21T21:24:43.433Z,100.00
2023-03-21T21:27:10.026Z,100.00
2023-03-21T21:29:36.848Z,100.00
2023-03-21T21:32:05.085Z,100.00
2023-03-21T21:34:31.645Z,100.00
2023-03-21T21:36:58.273Z,100.00
2023-03-21T21:39:25.363Z,100.00
2023-03-21T21:41:51.938Z,100.00
2023-03-21T21:44:18.607Z,100.00
2023-03-21T21:46:45.192Z,100.00
2023-03-21T21:49:13.101Z,100.00
2023-03-21T21:51:39.695Z,100.00
2023-03-21T21:54:06.442Z,100.00
2023-03-21T21:56:33.006Z,100.00
2023-03-21T21:59:00.233Z,100.00
2023-03-21T22:01:26.819Z,100.00
2023-03-21T22:03:53.418Z,100.00
2023-03-21T22:06:21.350Z,100.00
2023-03-21T22:08:47.868Z,100.00
2023-03-21T22:11:15.176Z,100.00
2023-03-21T22:13:41.789Z,100.00
2023-03-21T22:16:08.895Z,100.00
2023-03-21T22:18:35.492Z,100.00
2023-03-21T22:21:02.428Z,100.00
2023-03-21T22:23:30.624Z,100.00
2023-03-21T22:25:57.718Z,100.00
2023-03-21T22:28:24.424Z,100.00
2023-03-21T22:30:51.186Z,100.00
2023-03-21T22:33:17.774Z,100.00
2023-03-21T22:35:44.459Z,100.00
2023-03-21T22:38:10.998Z,100.00
2023-03-21T22:40:39.215Z,100.00
2023-03-21T22:43:06.396Z,100.00
2023-03-21T22:45:32.987Z,100.00
2023-03-21T22:47:59.713Z,100.00
2023-03-21T22:50:26.753Z,100.00
2023-03-21T22:52:53.399Z,100.00
2023-03-21T22:55:21.150Z,100.00
2023-03-21T22:57:49.235Z,100.00
2023-03-21T23:00:16.860Z,100.00
2023-03-21T23:02:43.436Z,100.00
2023-03-21T23:05:10.490Z,100.00
2023-03-21T23:07:37.346Z,100.00
2023-03-21T23:10:04.607Z,100.00
2023-03-21T23:12:31.169Z,100.00
2023-03-21T23:14:59.581Z,100.00
2023-03-21T23:17:27.012Z,100.00
2023-03-21T23:19:53.637Z,100.00
2023-03-21T23:22:20.156Z,100.00
2023-03-21T23:24:47.091Z,100.00
2023-03-21T23:27:13.685Z,100.00
2023-03-21T23:29:40.277Z,100.00
2023-03-21T23:32:08.192Z,100.00
2023-03-21T23:34:34.792Z,100.00
2023-03-21T23:37:01.374Z,100.00
2023-03-21T23:39:28.118Z,100.00
2023-03-21T23:41:54.770Z,100.00
2023-03-21T23:44:21.498Z,100.00
2023-03-21T23:46:48.169Z,100.00
2023-03-21T23:49:16.180Z,100.00
2023-03-21T23:51:42.873Z,100.00
2023-03-21T23:54:09.688Z,100.00
2023-03-21T23:56:36.413Z,100.00
2023-03-21T23:59:03.590Z,100.00
